Terminal Aerodrome Forecast
Issued by NWS

Home | Current Version | Previous Version | Text Only | Print | Product List | Glossary On
Versions: 1 2 3 4 5 6 7 8 9 10 11 12 13 14 15 16 17
753
FTUS41 KGYX 260527
TAFPSM
TAF
KPSM 260527Z 2606/2706 10006KT 1SM BR BKN002 OVC008
      TEMPO 2608/2612 1/2SM -SHRA FG
     FM261200 24005KT P6SM BKN015
     FM261600 28009G16KT P6SM BKN050
     FM270000 27008KT P6SM FEW250=

USA.gov is the U.S. government's official web portal to all federal, state and local government web resources and services.